createdAt,value
2023-02-23T00:00:11.248Z,2.4
2023-02-23T00:01:20.919Z,2.9
2023-02-23T00:02:28.609Z,2.5
2023-02-23T00:03:36.325Z,2.7
2023-02-23T00:04:45.942Z,1.9
2023-02-23T00:05:53.597Z,2.1
2023-02-23T00:07:03.268Z,2.6
2023-02-23T00:08:12.916Z,2.5
2023-02-23T00:09:22.583Z,2.7
2023-02-23T00:10:32.229Z,2.9
2023-02-23T00:11:39.879Z,2.7
2023-02-23T00:12:48.556Z,2.8
2023-02-23T00:13:58.206Z,2.1
2023-02-23T00:15:07.948Z,2.6
2023-02-23T00:16:16.549Z,2.7
2023-02-23T00:17:25.209Z,3.1
2023-02-23T00:18:32.841Z,2.7
2023-02-23T00:19:42.492Z,2.4
2023-02-23T00:20:50.158Z,2.5
2023-02-23T00:21:58.897Z,2.9
2023-02-23T00:23:08.489Z,3
2023-02-23T00:24:17.164Z,2.7
2023-02-23T00:25:26.872Z,3.1
2023-02-23T00:26:36.542Z,2.4
2023-02-23T00:27:44.228Z,2.7
2023-02-23T00:28:53.868Z,3.2
2023-02-23T00:30:03.506Z,2.8
2023-02-23T00:31:13.300Z,2.8
2023-02-23T00:32:22.267Z,2.7
2023-02-23T00:33:31.681Z,3.3
2023-02-23T00:34:41.364Z,3.4
2023-02-23T00:35:51.014Z,3.1
2023-02-23T00:36:59.675Z,2.8
2023-02-23T00:38:11.193Z,2.8
2023-02-23T00:39:19.859Z,2.7
2023-02-23T00:40:28.520Z,2.8
2023-02-23T00:41:38.167Z,3.8
2023-02-23T00:42:45.859Z,3.6
2023-02-23T00:43:55.515Z,3.1
2023-02-23T00:45:04.170Z,3.5
2023-02-23T00:46:11.878Z,3.1
2023-02-23T00:47:21.499Z,3.4
2023-02-23T00:48:30.158Z,3.2
2023-02-23T00:49:39.822Z,3.1
2023-02-23T00:50:49.464Z,2.8
2023-02-23T00:51:57.126Z,2.6
2023-02-23T00:53:06.814Z,3
2023-02-23T00:54:16.475Z,2.8
2023-02-23T00:55:26.120Z,2.8
2023-02-23T00:56:34.782Z,2.7
2023-02-23T00:57:44.406Z,2.2
2023-02-23T00:58:53.091Z,2.8
2023-02-23T01:00:00.740Z,2.7
2023-02-23T01:01:09.464Z,2.9
2023-02-23T01:02:19.058Z,2.9
2023-02-23T01:03:28.771Z,2.8
2023-02-23T01:04:38.422Z,2.6
2023-02-23T01:05:47.072Z,3.2
2023-02-23T01:06:55.737Z,2.8
2023-02-23T01:08:05.413Z,2.8
2023-02-23T01:09:14.076Z,2.6
2023-02-23T01:10:22.724Z,2.5
2023-02-23T01:11:32.379Z,2.7
2023-02-23T01:12:41.032Z,2.9
2023-02-23T01:13:50.718Z,3.4
2023-02-23T01:15:00.367Z,2.2
2023-02-23T01:16:09.020Z,2.7
2023-02-23T01:17:18.701Z,2.6
2023-02-23T01:18:26.368Z,2.3
2023-02-23T01:19:36.045Z,2.8
2023-02-23T01:20:45.674Z,3
2023-02-23T01:21:55.343Z,2.7
2023-02-23T01:23:05.022Z,3.4
2023-02-23T01:24:14.766Z,3.1
2023-02-23T01:25:23.405Z,2.8
2023-02-23T01:26:33.075Z,3.7
2023-02-23T01:27:42.748Z,3.2
2023-02-23T01:28:51.428Z,3.7
2023-02-23T01:30:01.096Z,3.4
2023-02-23T01:31:09.864Z,3.1
2023-02-23T01:32:19.611Z,3.1
2023-02-23T01:33:29.151Z,3.1
2023-02-23T01:34:38.834Z,3.2
2023-02-23T01:35:47.466Z,3.1
2023-02-23T01:36:57.145Z,3.1
2023-02-23T01:38:05.816Z,3.2
2023-02-23T01:39:15.507Z,3.5
2023-02-23T01:40:23.158Z,3
2023-02-23T01:41:31.804Z,3.1
2023-02-23T01:42:40.461Z,3.3
2023-02-23T01:43:49.165Z,3.2
2023-02-23T01:44:58.836Z,2.9
2023-02-23T01:46:07.520Z,3.5
2023-02-23T01:47:16.154Z,3.4
2023-02-23T01:48:25.815Z,3.2
2023-02-23T01:49:34.492Z,2.9
2023-02-23T01:50:44.297Z,3.4
2023-02-23T01:51:53.806Z,3.5
2023-02-23T01:53:03.467Z,3.1
2023-02-23T01:54:13.130Z,3.2
2023-02-23T01:55:20.811Z,2.9
2023-02-23T01:56:28.467Z,3.1
2023-02-23T01:57:38.108Z,2.9
2023-02-23T01:58:47.774Z,3.6
2023-02-23T01:59:57.456Z,2.8
2023-02-23T02:01:06.136Z,3
2023-02-23T02:02:13.778Z,2.7
2023-02-23T02:03:23.442Z,3.1
2023-02-23T02:04:32.122Z,3.7
2023-02-23T02:05:41.777Z,2.9
2023-02-23T02:06:51.576Z,3.1
2023-02-23T02:08:00.208Z,3.3
2023-02-23T02:09:09.895Z,3.4
2023-02-23T02:10:19.596Z,3.1
2023-02-23T02:11:28.222Z,3.9
2023-02-23T02:12:37.884Z,3.1
2023-02-23T02:13:47.537Z,3.5
2023-02-23T02:14:56.225Z,3.2
2023-02-23T02:16:05.898Z,3.4
2023-02-23T02:17:14.537Z,3.7
2023-02-23T02:18:24.199Z,3.2
2023-02-23T02:19:33.871Z,3.7
2023-02-23T02:20:42.519Z,3.4
2023-02-23T02:21:52.180Z,3.2
2023-02-23T02:23:00.847Z,3.3
2023-02-23T02:24:10.476Z,3.8
2023-02-23T02:25:20.186Z,4.4
2023-02-23T02:26:28.840Z,3.7
2023-02-23T02:27:38.489Z,3.7
2023-02-23T02:28:48.156Z,3.9
2023-02-23T02:29:56.843Z,3.4
2023-02-23T02:31:06.550Z,3.7
2023-02-23T02:32:15.211Z,3.8
2023-02-23T02:33:23.828Z,3.4
2023-02-23T02:34:33.510Z,4.3
2023-02-23T02:35:41.176Z,3.3
2023-02-23T02:36:50.842Z,3.7
2023-02-23T02:38:00.519Z,3.6
2023-02-23T02:39:10.225Z,3.9
2023-02-23T02:40:19.887Z,4
2023-02-23T02:41:28.549Z,3.7
2023-02-23T02:42:38.215Z,4
2023-02-23T02:43:47.897Z,3.7
2023-02-23T02:44:55.638Z,3.9
2023-02-23T02:46:04.305Z,3.9
2023-02-23T02:47:12.978Z,4.1
2023-02-23T02:48:21.630Z,3.3
2023-02-23T02:49:31.309Z,3.3
2023-02-23T02:50:39.028Z,3.7
2023-02-23T02:51:47.711Z,3.7
2023-02-23T02:52:55.402Z,4.4
2023-02-23T02:54:04.054Z,4
2023-02-23T02:55:13.790Z,3.8
2023-02-23T02:56:21.387Z,4.2
2023-02-23T02:57:31.064Z,3.6
2023-02-23T02:58:39.702Z,3.8
2023-02-23T02:59:49.392Z,3.7
2023-02-23T03:00:59.037Z,3.4
2023-02-23T03:02:07.700Z,3.5
2023-02-23T03:03:16.389Z,3.4
2023-02-23T03:04:26.064Z,3.5
2023-02-23T03:05:33.769Z,3.8
2023-02-23T03:06:43.417Z,3.2
2023-02-23T03:07:52.076Z,3.8
2023-02-23T03:09:00.748Z,4.1
2023-02-23T03:10:10.419Z,3.8
2023-02-23T03:11:20.368Z,3.9
2023-02-23T03:12:28.729Z,3.8
2023-02-23T03:13:38.390Z,3.8
2023-02-23T03:14:47.066Z,3.8
2023-02-23T03:15:56.746Z,3.3
2023-02-23T03:17:06.395Z,3.6
2023-02-23T03:18:14.069Z,3.9
2023-02-23T03:19:23.727Z,3.9
2023-02-23T03:20:32.418Z,3.8
2023-02-23T03:21:41.065Z,3.8
2023-02-23T03:22:50.734Z,4
2023-02-23T03:23:59.404Z,3.9
2023-02-23T03:25:09.090Z,4
2023-02-23T03:26:18.779Z,3.8
2023-02-23T03:27:28.485Z,3.8
2023-02-23T03:28:38.138Z,4.4
2023-02-23T03:29:45.866Z,3.8
2023-02-23T03:30:54.608Z,4.5
2023-02-23T03:32:04.338Z,4.3
2023-02-23T03:33:12.889Z,4
2023-02-23T03:34:22.556Z,3.7
2023-02-23T03:35:31.234Z,4
2023-02-23T03:36:39.886Z,3.5
2023-02-23T03:37:49.566Z,4.2
2023-02-23T03:38:59.215Z,3.7
2023-02-23T03:40:08.923Z,3.4
2023-02-23T03:41:18.814Z,3.3
2023-02-23T03:42:26.247Z,3.6
2023-02-23T03:43:35.969Z,2.9
2023-02-23T03:44:44.582Z,2.8
2023-02-23T03:45:52.360Z,2.7
2023-02-23T03:47:01.992Z,3.1
2023-02-23T03:48:09.647Z,3.3
2023-02-23T03:49:18.309Z,3.5
2023-02-23T03:50:27.974Z,2.9
2023-02-23T03:51:36.668Z,3.1
2023-02-23T03:52:46.318Z,3
2023-02-23T03:53:54.978Z,2.5
2023-02-23T03:55:03.632Z,2.8
2023-02-23T03:56:13.312Z,2.9
2023-02-23T03:57:21.994Z,3.1
2023-02-23T03:58:31.684Z,2.7
2023-02-23T03:59:41.391Z,3
2023-02-23T04:00:50.065Z,3.5
2023-02-23T04:01:59.796Z,3.1
2023-02-23T04:03:09.440Z,3.6
2023-02-23T04:04:17.163Z,3.5
2023-02-23T04:05:26.920Z,3.3
2023-02-23T04:06:34.542Z,2.8
2023-02-23T04:07:43.213Z,3.5
2023-02-23T04:08:52.866Z,3.3
2023-02-23T04:10:00.514Z,3.3
2023-02-23T04:11:10.190Z,3.2
2023-02-23T04:12:19.834Z,3.2
2023-02-23T04:13:28.479Z,3.3
2023-02-23T04:14:38.126Z,3.5
2023-02-23T04:15:46.856Z,3.2
2023-02-23T04:16:56.500Z,3
2023-02-23T04:18:06.135Z,3
2023-02-23T04:19:13.785Z,3.1
2023-02-23T04:20:23.471Z,3
2023-02-23T04:21:32.223Z,3.7
2023-02-23T04:22:41.853Z,3
2023-02-23T04:23:48.568Z,2.9
2023-02-23T04:24:57.261Z,3.2
2023-02-23T04:26:05.936Z,3.4
2023-02-23T04:27:15.623Z,3
2023-02-23T04:28:24.292Z,3.2
2023-02-23T04:29:33.982Z,3.2
2023-02-23T04:30:42.679Z,3.5
2023-02-23T04:31:52.427Z,3.2
2023-02-23T04:33:01.982Z,3
2023-02-23T04:34:11.652Z,2.3
2023-02-23T04:35:21.313Z,2.5
2023-02-23T04:36:31.039Z,2.5
2023-02-23T04:37:39.694Z,2.5
2023-02-23T04:38:49.377Z,2.8
2023-02-23T04:39:58.024Z,2.6
2023-02-23T04:41:05.688Z,2.8
2023-02-23T04:42:15.383Z,3.1
2023-02-23T04:43:25.070Z,3.2
2023-02-23T04:44:34.747Z,2.8
2023-02-23T04:45:44.485Z,2.7
2023-02-23T04:46:54.088Z,3.3
2023-02-23T04:48:03.768Z,2.8
2023-02-23T04:49:13.427Z,2.8
2023-02-23T04:50:23.119Z,2.9
2023-02-23T04:51:31.789Z,3.5
2023-02-23T04:52:40.463Z,3.3
2023-02-23T04:53:50.117Z,3
2023-02-23T04:54:57.827Z,3.1
2023-02-23T04:56:07.492Z,3.1
2023-02-23T04:57:17.193Z,3.4
2023-02-23T04:58:24.861Z,3.1
2023-02-23T04:59:34.557Z,3.7
2023-02-23T05:00:43.213Z,3.7
2023-02-23T05:01:51.910Z,3.4
2023-02-23T05:03:01.587Z,3.8
2023-02-23T05:04:10.298Z,3.6
2023-02-23T05:05:19.944Z,4
2023-02-23T05:06:29.662Z,3.5
2023-02-23T05:07:38.368Z,3.8
2023-02-23T05:08:48.054Z,3.5
2023-02-23T05:09:56.743Z,3.5
2023-02-23T05:11:05.404Z,3.5
2023-02-23T05:12:15.096Z,3.6
2023-02-23T05:13:24.754Z,3.1
2023-02-23T05:14:33.423Z,4.1
2023-02-23T05:15:43.151Z,3.6
2023-02-23T05:16:50.853Z,2.9
2023-02-23T05:18:00.524Z,3.6
2023-02-23T05:19:09.190Z,3.4
2023-02-23T05:20:18.910Z,3.1
2023-02-23T05:21:28.578Z,3
2023-02-23T05:22:37.246Z,3.7
2023-02-23T05:23:46.910Z,3.8
2023-02-23T05:24:57.547Z,3.2
2023-02-23T05:26:05.251Z,3.3
2023-02-23T05:27:14.941Z,3.8
2023-02-23T05:28:24.626Z,3.4
2023-02-23T05:29:33.390Z,2.7
2023-02-23T05:30:43.060Z,3.7
2023-02-23T05:31:49.723Z,3.4
2023-02-23T05:32:58.310Z,3.7
2023-02-23T05:34:07.992Z,3.4
2023-02-23T05:35:17.659Z,3.9
2023-02-23T05:36:27.358Z,3.3
2023-02-23T05:37:36.075Z,2.9
2023-02-23T05:38:44.733Z,3.4
2023-02-23T05:39:54.392Z,3.4
2023-02-23T05:41:04.068Z,3.7
2023-02-23T05:42:13.784Z,4.1
2023-02-23T05:43:23.487Z,3.8
2023-02-23T05:44:31.136Z,4
2023-02-23T05:45:40.804Z,4.4
2023-02-23T05:46:49.446Z,3.9
2023-02-23T05:47:57.125Z,5.1
2023-02-23T05:49:06.799Z,6.2
2023-02-23T05:50:14.501Z,3.7
2023-02-23T05:51:23.155Z,3.3
2023-02-23T05:52:32.875Z,3.3
2023-02-23T05:53:41.527Z,3.6
2023-02-23T05:54:51.188Z,3.5
2023-02-23T05:55:59.842Z,3
2023-02-23T05:57:07.491Z,3.5
2023-02-23T05:58:17.212Z,4.5
2023-02-23T05:59:24.902Z,4.7
2023-02-23T06:00:34.574Z,4.9
2023-02-23T06:01:44.265Z,3.6
2023-02-23T06:02:53.111Z,3.6
2023-02-23T06:04:04.084Z,4.3
2023-02-23T06:05:12.334Z,4
2023-02-23T06:06:19.977Z,3.8
2023-02-23T06:07:29.671Z,3.4
2023-02-23T06:08:38.388Z,3.1
2023-02-23T06:09:47.034Z,2.4
2023-02-23T06:10:56.657Z,2.8
2023-02-23T06:12:04.344Z,3.3
2023-02-23T06:13:14.012Z,2.6
2023-02-23T06:14:22.679Z,3.2
2023-02-23T06:15:31.308Z,3.4
2023-02-23T06:16:41.062Z,3.5
2023-02-23T06:17:49.687Z,2.7
2023-02-23T06:18:58.360Z,3.2
2023-02-23T06:20:08.034Z,3
2023-02-23T06:21:16.815Z,3.4
2023-02-23T06:22:26.422Z,3.4
2023-02-23T06:23:36.112Z,3.3
2023-02-23T06:24:45.806Z,3
2023-02-23T06:25:54.477Z,3.5
2023-02-23T06:27:02.129Z,3.3
2023-02-23T06:28:11.823Z,3.8
2023-02-23T06:29:21.514Z,3.9
2023-02-23T06:30:30.205Z,3.6
2023-02-23T06:31:40.020Z,3
2023-02-23T06:32:48.531Z,2.9
2023-02-23T06:33:57.209Z,4.6
2023-02-23T06:35:06.891Z,4.7
2023-02-23T06:36:16.600Z,4.2
2023-02-23T06:37:25.284Z,4.4
2023-02-23T06:38:35.034Z,3.7
2023-02-23T06:39:44.681Z,3.2
2023-02-23T06:40:54.400Z,2.9
2023-02-23T06:42:04.061Z,2.8
2023-02-23T06:43:12.747Z,2.5
2023-02-23T06:44:22.484Z,3.3
2023-02-23T06:45:30.199Z,3.2
2023-02-23T06:46:39.910Z,3.5
2023-02-23T06:47:49.666Z,3
2023-02-23T06:48:59.301Z,3.4
2023-02-23T06:50:09.029Z,2.6
2023-02-23T06:51:16.872Z,3.1
2023-02-23T06:52:26.427Z,3.6
2023-02-23T06:53:36.109Z,3.3
2023-02-23T06:54:43.745Z,3
2023-02-23T06:55:53.499Z,2.9
2023-02-23T06:57:02.220Z,3
2023-02-23T06:58:11.921Z,2.8
2023-02-23T06:59:21.620Z,3.5
2023-02-23T07:00:29.296Z,3.2
2023-02-23T07:01:39.030Z,3.2
2023-02-23T07:02:47.701Z,3.2
2023-02-23T07:03:56.453Z,3.3
2023-02-23T07:05:06.122Z,3.5
2023-02-23T07:06:14.802Z,2.7
2023-02-23T07:07:24.478Z,2.9
2023-02-23T07:08:34.179Z,3.2
2023-02-23T07:09:42.896Z,2.7
2023-02-23T07:10:51.604Z,2.4
2023-02-23T07:12:00.316Z,2.2
2023-02-23T07:13:09.018Z,2.7
2023-02-23T07:14:26.241Z,2.8
2023-02-23T07:15:29.372Z,2.4
2023-02-23T07:16:39.097Z,2.8
2023-02-23T07:17:48.781Z,3.6
2023-02-23T07:18:57.383Z,3.7
2023-02-23T07:20:07.125Z,3.3
2023-02-23T07:21:15.773Z,4.1
2023-02-23T07:22:23.456Z,3.4
2023-02-23T07:23:32.157Z,3.3
2023-02-23T07:24:40.896Z,3.4
2023-02-23T07:25:50.111Z,3
2023-02-23T07:26:59.805Z,2.5
2023-02-23T07:28:09.569Z,2.4
2023-02-23T07:29:19.496Z,3.3
2023-02-23T07:30:28.160Z,2.5
2023-02-23T07:31:35.988Z,2.7
2023-02-23T07:32:45.750Z,3.1
2023-02-23T07:33:53.448Z,3.1
2023-02-23T07:35:03.201Z,2.7
2023-02-23T07:36:12.968Z,2.7
2023-02-23T07:37:21.633Z,3.4
2023-02-23T07:38:31.365Z,3.5
2023-02-23T07:39:40.046Z,3.3
2023-02-23T07:40:48.750Z,3
2023-02-23T07:41:58.542Z,3.3
2023-02-23T07:43:06.264Z,3
2023-02-23T07:44:14.981Z,3.4
2023-02-23T07:45:24.694Z,3.2
2023-02-23T07:46:33.331Z,3.2
2023-02-23T07:47:43.019Z,2.6
2023-02-23T07:48:52.735Z,2.6
2023-02-23T07:50:00.507Z,2.4
2023-02-23T07:51:10.204Z,2.4
2023-02-23T07:52:19.858Z,2.5
2023-02-23T07:53:28.543Z,2.1
2023-02-23T07:54:38.258Z,2.4
2023-02-23T07:55:45.963Z,2.5
2023-02-23T07:56:55.695Z,1.7
2023-02-23T07:58:04.449Z,2.7
2023-02-23T07:59:15.256Z,2.7
2023-02-23T08:00:25.001Z,2.9
2023-02-23T08:01:32.925Z,2.8
2023-02-23T08:02:42.524Z,2.6
2023-02-23T08:03:52.199Z,3.2
2023-02-23T08:05:00.916Z,3
2023-02-23T08:06:10.648Z,2.7
2023-02-23T08:07:19.356Z,3.2
2023-02-23T08:08:28.106Z,2.9
2023-02-23T08:09:37.840Z,2.4
2023-02-23T08:10:47.132Z,2.6
2023-02-23T08:11:57.209Z,2.8
2023-02-23T08:13:06.990Z,2.5
2023-02-23T08:14:15.686Z,3
2023-02-23T08:15:25.349Z,2.2
2023-02-23T08:16:34.069Z,2.8
2023-02-23T08:17:42.711Z,3
2023-02-23T08:18:52.391Z,5.1
2023-02-23T08:20:01.058Z,2.2
2023-02-23T08:21:09.775Z,2.1
2023-02-23T08:22:19.478Z,1.9
2023-02-23T08:23:28.131Z,2.3
2023-02-23T08:24:37.964Z,2.4
2023-02-23T08:25:47.728Z,2.7
2023-02-23T08:26:56.396Z,2.3
2023-02-23T08:28:06.105Z,3.2
2023-02-23T08:29:13.835Z,3
2023-02-23T08:30:22.537Z,2.3
2023-02-23T08:31:32.351Z,2.1
2023-02-23T08:32:42.037Z,2.5
2023-02-23T08:33:51.676Z,2.2
2023-02-23T08:35:00.349Z,1.8
2023-02-23T08:36:09.025Z,2
2023-02-23T08:37:18.764Z,1.8
2023-02-23T08:38:27.499Z,1.9
2023-02-23T08:39:36.198Z,2.2
2023-02-23T08:40:45.853Z,1.9
2023-02-23T08:41:55.618Z,2.1
2023-02-23T08:43:05.215Z,2.4
2023-02-23T08:44:13.882Z,2.5
2023-02-23T08:45:22.576Z,2.4
2023-02-23T08:46:32.300Z,2.5
2023-02-23T08:47:39.930Z,2
2023-02-23T08:48:49.604Z,2.3
2023-02-23T08:49:58.327Z,2.3
2023-02-23T08:51:06.954Z,2.1
2023-02-23T08:52:16.672Z,2
2023-02-23T08:53:24.346Z,2.5
2023-02-23T08:54:34.067Z,1.7
2023-02-23T08:55:43.774Z,1.8
2023-02-23T08:56:52.434Z,2
2023-02-23T08:58:02.107Z,2.2
2023-02-23T08:59:10.828Z,2.3
2023-02-23T09:00:19.539Z,2.3
2023-02-23T09:01:29.265Z,1.8
2023-02-23T09:02:37.919Z,2.3
2023-02-23T09:03:47.570Z,2
2023-02-23T09:04:56.279Z,2.1
2023-02-23T09:06:05.057Z,1.9
2023-02-23T09:07:14.835Z,2.4
2023-02-23T09:08:23.600Z,2.4
2023-02-23T09:09:33.544Z,2.1
2023-02-23T09:10:43.270Z,2.1
2023-02-23T09:11:51.990Z,2.1
2023-02-23T09:13:01.649Z,2.3
2023-02-23T09:14:10.332Z,1.9
2023-02-23T09:15:18.051Z,2.7
2023-02-23T09:16:27.718Z,2.2
2023-02-23T09:17:37.381Z,2.3
2023-02-23T09:18:46.028Z,3.2
2023-02-23T09:19:55.693Z,3.3
2023-02-23T09:21:05.416Z,2.6
2023-02-23T09:22:15.165Z,2.8
2023-02-23T09:23:23.891Z,2.6
2023-02-23T09:24:32.566Z,2
2023-02-23T09:25:42.297Z,1.9
2023-02-23T09:26:51.971Z,2.7
2023-02-23T09:28:00.642Z,2.4
2023-02-23T09:29:10.384Z,2.2
2023-02-23T09:30:19.027Z,2.1
2023-02-23T09:31:28.844Z,2.7
2023-02-23T09:32:37.442Z,1.9
2023-02-23T09:33:47.084Z,2.2
2023-02-23T09:34:56.757Z,2.5
2023-02-23T09:36:05.493Z,1.9
2023-02-23T09:37:14.255Z,2.5
2023-02-23T09:38:23.936Z,1.7
2023-02-23T09:39:38.336Z,2.3
2023-02-23T09:40:44.236Z,1.5
2023-02-23T09:41:52.900Z,2.3
2023-02-23T09:43:02.576Z,1.9
2023-02-23T09:44:12.293Z,1.8
2023-02-23T09:45:20.979Z,2.1
2023-02-23T09:46:29.752Z,1.8
2023-02-23T09:47:39.295Z,2.1
2023-02-23T09:48:48.022Z,2
2023-02-23T09:49:57.675Z,1.6
2023-02-23T09:51:06.357Z,1.8
2023-02-23T09:52:14.216Z,2.1
2023-02-23T09:53:23.759Z,1.9
2023-02-23T09:54:32.439Z,1.8
2023-02-23T09:55:42.122Z,1.8
2023-02-23T09:56:50.784Z,2.4
2023-02-23T09:57:59.445Z,2
2023-02-23T09:59:10.052Z,2.3
2023-02-23T10:00:18.785Z,2
2023-02-23T10:01:27.510Z,2.2
2023-02-23T10:02:37.172Z,2.4
2023-02-23T10:03:46.851Z,2.8
2023-02-23T10:04:57.559Z,3.4
2023-02-23T10:06:06.236Z,3.6
2023-02-23T10:07:14.940Z,3.6
2023-02-23T10:08:24.584Z,3
2023-02-23T10:09:33.247Z,2.8
2023-02-23T10:10:43.005Z,2.7
2023-02-23T10:11:52.677Z,2.8
2023-02-23T10:13:01.328Z,3
2023-02-23T10:14:10.065Z,2.2
2023-02-23T10:15:18.758Z,2.5
2023-02-23T10:16:26.439Z,3.2
2023-02-23T10:17:36.479Z,3.1
2023-02-23T10:18:47.133Z,2.4
2023-02-23T10:19:55.486Z,2.7
2023-02-23T10:21:05.164Z,2.5
2023-02-23T10:22:13.804Z,2.6
2023-02-23T10:23:21.573Z,2.5
2023-02-23T10:24:31.429Z,1.9
2023-02-23T10:25:41.133Z,1.9
2023-02-23T10:26:51.020Z,2
2023-02-23T10:27:59.702Z,1.6
2023-02-23T10:29:07.342Z,1.6
2023-02-23T10:30:17.035Z,1.5
2023-02-23T10:31:24.899Z,1.8
2023-02-23T10:32:33.494Z,1.5
2023-02-23T10:33:43.142Z,1.5
2023-02-23T10:34:50.896Z,1.7
2023-02-23T10:36:12.328Z,1.6
2023-02-23T10:37:11.256Z,1.6
2023-02-23T10:38:18.987Z,1.8
2023-02-23T10:39:28.691Z,1.8
2023-02-23T10:40:36.338Z,1.7
2023-02-23T10:41:46.040Z,1.4
2023-02-23T10:42:55.748Z,1.6
2023-02-23T10:44:16.076Z,1.7
2023-02-23T10:45:16.064Z,1.3
2023-02-23T10:46:24.337Z,1
2023-02-23T10:47:33.544Z,1.8
2023-02-23T10:48:42.267Z,1.4
2023-02-23T10:49:50.964Z,1.4
2023-02-23T10:51:00.620Z,1.7
2023-02-23T10:52:09.324Z,1.1
2023-02-23T10:53:17.999Z,1.9
2023-02-23T10:54:27.676Z,1.7
2023-02-23T10:55:36.350Z,1.7
2023-02-23T10:56:46.049Z,1.3
2023-02-23T10:57:54.690Z,1.3
2023-02-23T10:59:04.537Z,1.2
2023-02-23T11:00:14.624Z,1.2
2023-02-23T11:01:22.226Z,1.4
2023-02-23T11:02:30.470Z,1.3
2023-02-23T11:03:42.788Z,1
2023-02-23T11:04:48.822Z,1.3
2023-02-23T11:05:58.511Z,1.3
2023-02-23T11:07:08.239Z,1.2
2023-02-23T11:08:18.398Z,1.6
2023-02-23T11:09:42.293Z,1.2
2023-02-23T11:10:36.269Z,1.3
2023-02-23T11:11:45.137Z,1.3
2023-02-23T11:12:54.825Z,1.4
2023-02-23T11:14:04.523Z,1.3
2023-02-23T11:15:14.218Z,1.3
2023-02-23T11:16:22.885Z,1.5
2023-02-23T11:17:32.635Z,1.5
2023-02-23T11:18:41.313Z,1.5
2023-02-23T11:19:49.992Z,1.3
2023-02-23T11:20:58.711Z,1.5
2023-02-23T11:22:09.411Z,1.3
2023-02-23T11:23:18.064Z,1.2
2023-02-23T11:24:27.762Z,1.8
2023-02-23T11:25:37.422Z,1.4
2023-02-23T11:26:46.348Z,1.3
2023-02-23T11:27:56.017Z,1.3
2023-02-23T11:29:05.678Z,1.4
2023-02-23T11:30:15.390Z,1.4
2023-02-23T11:31:25.188Z,1.3
2023-02-23T11:32:33.928Z,1.5
2023-02-23T11:33:43.537Z,2
2023-02-23T11:34:53.337Z,1.6
2023-02-23T11:36:02.038Z,1.9
2023-02-23T11:37:12.729Z,1.8
2023-02-23T11:38:21.487Z,1.7
2023-02-23T11:39:30.282Z,1.8
2023-02-23T11:40:39.941Z,1.4
2023-02-23T11:41:47.597Z,1
2023-02-23T11:42:57.320Z,1
2023-02-23T11:44:06.541Z,1.3
2023-02-23T11:45:14.671Z,1.2
2023-02-23T11:46:24.620Z,1.1
2023-02-23T11:47:33.109Z,1.2
2023-02-23T11:48:41.753Z,0.9
2023-02-23T11:49:51.518Z,1.2
2023-02-23T11:50:59.235Z,1
2023-02-23T11:52:08.956Z,1.2
2023-02-23T11:53:18.646Z,1.2
2023-02-23T11:54:26.304Z,1.5
2023-02-23T11:55:34.967Z,1.5
2023-02-23T11:56:43.594Z,1.3
2023-02-23T11:57:52.324Z,1.3
2023-02-23T11:59:02.030Z,1.5
2023-02-23T12:00:10.705Z,1.6
2023-02-23T12:01:19.398Z,1.5
2023-02-23T12:02:28.095Z,1.8
2023-02-23T12:03:36.891Z,1.5
2023-02-23T12:04:52.640Z,1.3
2023-02-23T12:06:02.189Z,1
2023-02-23T12:07:09.825Z,0.9
2023-02-23T12:08:18.483Z,0.9
2023-02-23T12:09:27.164Z,0.9
2023-02-23T12:10:36.811Z,1.1
2023-02-23T12:11:48.410Z,1.2
2023-02-23T12:12:55.133Z,1.2
2023-02-23T12:14:03.823Z,1.4
2023-02-23T12:15:13.474Z,1.2
2023-02-23T12:16:23.312Z,1.1
2023-02-23T12:17:32.878Z,1.1
2023-02-23T12:18:42.513Z,1
2023-02-23T12:19:51.151Z,0.9
2023-02-23T12:21:00.814Z,0.8
2023-02-23T12:22:08.454Z,1
2023-02-23T12:23:17.131Z,1.2
2023-02-23T12:24:26.813Z,0.8
2023-02-23T12:25:35.459Z,0.8
2023-02-23T12:26:45.201Z,0.9
2023-02-23T12:27:54.884Z,0.8
2023-02-23T12:29:02.534Z,0.8
2023-02-23T12:30:12.185Z,1.2
2023-02-23T12:31:21.901Z,1.1
2023-02-23T12:32:30.611Z,0.5
2023-02-23T12:33:40.201Z,0.8
2023-02-23T12:34:47.872Z,0.6
2023-02-23T12:35:56.529Z,1
2023-02-23T12:37:06.183Z,0.8
2023-02-23T12:38:12.851Z,1
2023-02-23T12:39:22.544Z,0.9
2023-02-23T12:40:31.218Z,0.7
2023-02-23T12:41:40.908Z,0.8
2023-02-23T12:42:49.572Z,1.1
2023-02-23T12:43:59.255Z,1
2023-02-23T12:45:08.919Z,0.7
2023-02-23T12:46:18.823Z,1.1
2023-02-23T12:47:28.395Z,0.9
2023-02-23T12:48:37.161Z,1
2023-02-23T12:49:46.904Z,1.1
2023-02-23T12:50:56.678Z,1.1
2023-02-23T12:52:05.421Z,0.7
2023-02-23T12:53:15.207Z,1.3
2023-02-23T12:54:24.944Z,1
2023-02-23T12:55:32.710Z,1.2
2023-02-23T12:56:42.459Z,1.1
2023-02-23T12:57:51.200Z,1.2
2023-02-23T12:58:58.981Z,0.9
2023-02-23T13:00:08.719Z,1.1
2023-02-23T13:01:18.890Z,1.1
2023-02-23T13:02:27.282Z,1
2023-02-23T13:03:36.987Z,0.8
2023-02-23T13:04:45.735Z,1
2023-02-23T13:05:55.490Z,0.7
2023-02-23T13:07:05.307Z,1
2023-02-23T13:08:15.002Z,0.8
2023-02-23T13:09:24.837Z,0.9
2023-02-23T13:10:33.562Z,0.7
2023-02-23T13:11:42.288Z,1
2023-02-23T13:12:52.026Z,0.7
2023-02-23T13:14:01.786Z,0.9
2023-02-23T13:15:11.532Z,0.8
2023-02-23T13:16:20.414Z,1.4
2023-02-23T13:17:28.087Z,1.7
2023-02-23T13:18:37.908Z,1.3
2023-02-23T13:19:45.547Z,0.9
2023-02-23T13:20:54.235Z,0.7
2023-02-23T13:22:03.995Z,0.7
2023-02-23T13:23:11.685Z,0.8
2023-02-23T13:24:21.343Z,0.7
2023-02-23T13:25:30.040Z,0.5
2023-02-23T13:26:39.717Z,0.6
2023-02-23T13:27:49.381Z,0.7
2023-02-23T13:28:58.054Z,0.6
2023-02-23T13:30:06.728Z,0.9
2023-02-23T13:31:16.567Z,1.4
2023-02-23T13:32:25.236Z,0.9
2023-02-23T13:33:43.494Z,0.8
2023-02-23T13:34:44.439Z,0.9
2023-02-23T13:35:52.101Z,0.8
2023-02-23T13:37:01.763Z,1.4
2023-02-23T13:38:10.426Z,1.1
2023-02-23T13:39:20.120Z,1.6
2023-02-23T13:40:29.767Z,1.1
2023-02-23T13:41:37.406Z,1.2
2023-02-23T13:42:47.111Z,0.8
2023-02-23T13:43:55.747Z,0.8
2023-02-23T13:45:03.406Z,0.9
2023-02-23T13:46:13.135Z,1
2023-02-23T13:47:21.731Z,1
2023-02-23T13:48:31.398Z,0.9
2023-02-23T13:49:41.096Z,1.1
2023-02-23T13:50:49.769Z,1.6
2023-02-23T13:51:59.455Z,1.1
2023-02-23T13:53:08.165Z,1.1
2023-02-23T13:54:17.844Z,0.8
2023-02-23T13:55:30.952Z,0.8
2023-02-23T13:56:36.153Z,0.9
2023-02-23T13:57:44.793Z,1
2023-02-23T13:58:54.479Z,1.1
2023-02-23T14:00:03.196Z,1
2023-02-23T14:01:12.805Z,0.8
2023-02-23T14:02:22.579Z,0.7
2023-02-23T14:03:30.180Z,1.1
2023-02-23T14:04:40.760Z,1
2023-02-23T14:05:49.453Z,0.8
2023-02-23T14:06:58.119Z,0.9
2023-02-23T14:08:07.769Z,0.8
2023-02-23T14:09:15.430Z,0.8
2023-02-23T14:10:24.085Z,1
2023-02-23T14:11:32.760Z,1.3
2023-02-23T14:12:41.368Z,1.5
2023-02-23T14:13:52.076Z,1.5
2023-02-23T14:15:01.708Z,1
2023-02-23T14:16:10.431Z,0.8
2023-02-23T14:17:20.072Z,0.8
2023-02-23T14:18:28.739Z,0.8
2023-02-23T14:19:38.414Z,0.7
2023-02-23T14:20:48.146Z,0.8
2023-02-23T14:21:57.807Z,0.7
2023-02-23T14:23:07.474Z,0.5
2023-02-23T14:24:16.158Z,0.6
2023-02-23T14:25:24.823Z,0.7
2023-02-23T14:26:34.494Z,0.6
2023-02-23T14:27:44.182Z,0.6
2023-02-23T14:28:53.837Z,0.8
2023-02-23T14:30:03.526Z,1
2023-02-23T14:31:13.319Z,1.3
2023-02-23T14:32:23.050Z,1.3
2023-02-23T14:33:30.496Z,1.4
2023-02-23T14:34:39.201Z,1.6
2023-02-23T14:35:48.865Z,1.6
2023-02-23T14:36:58.551Z,1.2
2023-02-23T14:38:08.207Z,1
2023-02-23T14:39:16.869Z,0.8
2023-02-23T14:40:26.562Z,0.7
2023-02-23T14:41:36.355Z,0.8
2023-02-23T14:42:46.062Z,0.9
2023-02-23T14:43:55.868Z,0.6
2023-02-23T14:45:03.417Z,0.7
2023-02-23T14:46:12.089Z,0.5
2023-02-23T14:47:21.737Z,0.8
2023-02-23T14:48:30.381Z,0.9
2023-02-23T14:49:40.079Z,0.6
2023-02-23T14:50:49.720Z,0.7
2023-02-23T14:51:57.379Z,0.5
2023-02-23T14:53:07.056Z,0.6
2023-02-23T14:54:16.687Z,0.6
2023-02-23T14:55:26.761Z,0.6
2023-02-23T14:56:43.613Z,0.5
2023-02-23T14:57:44.644Z,0.9
2023-02-23T14:58:54.294Z,0.8
2023-02-23T15:00:03.009Z,0.5
2023-02-23T15:01:10.627Z,0.7
2023-02-23T15:02:20.329Z,0.7
2023-02-23T15:03:27.962Z,0.4
2023-02-23T15:04:36.684Z,0.8
2023-02-23T15:05:46.299Z,0.6
2023-02-23T15:06:55.962Z,0.6
2023-02-23T15:08:05.624Z,0.6
2023-02-23T15:09:15.302Z,0.7
2023-02-23T15:10:22.960Z,0.8
2023-02-23T15:11:32.617Z,0.8
2023-02-23T15:12:40.286Z,0.9
2023-02-23T15:13:48.948Z,0.9
2023-02-23T15:14:58.624Z,1.1
2023-02-23T15:16:06.329Z,0.9
2023-02-23T15:17:15.948Z,0.5
2023-02-23T15:18:24.611Z,0.7
2023-02-23T15:19:33.263Z,0.7
2023-02-23T15:21:42.248Z,0.7
2023-02-23T15:22:50.918Z,0.6
2023-02-23T15:24:00.592Z,0.6
2023-02-23T15:25:09.255Z,0.7
2023-02-23T15:26:24.326Z,0.8
2023-02-23T15:27:27.574Z,0.8
2023-02-23T15:28:36.208Z,0.8
2023-02-23T15:29:45.923Z,0.9
2023-02-23T15:30:54.597Z,0.7
2023-02-23T15:32:04.425Z,0.6
2023-02-23T15:33:13.961Z,0.8
2023-02-23T15:34:22.668Z,0.8
2023-02-23T15:35:32.802Z,0.8
2023-02-23T15:36:41.492Z,0.7
2023-02-23T15:37:55.229Z,0.8
2023-02-23T15:39:01.801Z,1
2023-02-23T15:40:10.574Z,1.3
2023-02-23T15:41:19.397Z,1.5
2023-02-23T15:42:28.828Z,1.5
2023-02-23T15:43:37.500Z,1.4
2023-02-23T15:44:47.172Z,1.2
2023-02-23T15:45:56.854Z,1
2023-02-23T15:47:05.547Z,0.6
2023-02-23T15:48:15.328Z,0.9
2023-02-23T15:49:22.982Z,0.8
2023-02-23T15:50:36.939Z,1
2023-02-23T15:51:43.387Z,0.8
2023-02-23T15:52:52.039Z,0.9
2023-02-23T15:54:01.721Z,1
2023-02-23T15:55:11.439Z,0.8
2023-02-23T15:56:20.164Z,0.9
2023-02-23T15:57:29.849Z,0.8
2023-02-23T15:58:42.039Z,0.6